Terminal Aerodrome Forecast
Issued by NWS

Home | Current Version | Previous Version | Text Only | Print | Product List | Glossary On
Versions: 1 2 3 4 5 6 7 8 9 10 11 12 13 14 15 16 17 18 19 20 21 22
196
FTUS46 KSEW 111131
TAFOLM
TAF
KOLM 111131Z 1112/1212 02004KT 2SM BR BKN002 OVC120
      TEMPO 1112/1116 1/2SM FG VV002
     FM111600 03006KT 5SM BR SCT005 BKN050 OVC090
     FM111800 VRB04KT 5SM -RA BR OVC040
     FM120400 16006KT 5SM -RA OVC025=

USA.gov is the U.S. government's official web portal to all federal, state and local government web resources and services.